createdAt,value
2023-04-10T00:00:57.661Z,78.75
2023-04-10T00:01:59.924Z,66.43
2023-04-10T00:03:04.801Z,64.38
2023-04-10T00:04:07.344Z,66.05
2023-04-10T00:05:10.873Z,82.50
2023-04-10T00:06:12.928Z,80.18
2023-04-10T00:07:16.969Z,80.63
2023-04-10T00:08:18.866Z,82.13
2023-04-10T00:09:22.853Z,86.28
2023-04-10T00:10:26.474Z,79.32
2023-04-10T00:11:29.514Z,77.93
2023-04-10T00:12:32.745Z,83.15
2023-04-10T00:13:35.657Z,75.07
2023-04-10T00:14:37.596Z,79.30
2023-04-10T00:15:41.089Z,78.50
2023-04-10T00:16:43.388Z,74.15
2023-04-10T00:17:46.579Z,79.22
2023-04-10T00:18:48.667Z,80.50
2023-04-10T00:19:51.674Z,70.35
2023-04-10T00:20:53.688Z,80.32
2023-04-10T00:21:56.765Z,77.15
2023-04-10T00:22:58.743Z,75.90
2023-04-10T00:24:01.722Z,69.35
2023-04-10T00:25:04.176Z,71.40
2023-04-10T00:26:07.204Z,74.22
2023-04-10T00:27:09.142Z,65.28
2023-04-10T00:28:14.440Z,68.30
2023-04-10T00:29:16.441Z,72.13
2023-04-10T00:30:19.711Z,75.05
2023-04-10T00:31:22.989Z,71.53
2023-04-10T00:32:26.715Z,66.80
2023-04-10T00:33:28.689Z,71.72
2023-04-10T00:34:32.933Z,65.30
2023-04-10T00:35:34.960Z,73.57
2023-04-10T00:36:37.894Z,68.65
2023-04-10T00:37:39.917Z,72.97
2023-04-10T00:38:42.819Z,79.50
2023-04-10T00:39:45.420Z,74.28
2023-04-10T00:40:48.417Z,74.13
2023-04-10T00:41:50.697Z,71.68
2023-04-10T00:42:53.798Z,77.43
2023-04-10T00:43:57.927Z,78.57
2023-04-10T00:45:00.859Z,73.63
2023-04-10T00:46:02.910Z,70.13
2023-04-10T00:47:06.209Z,72.15
2023-04-10T00:48:08.742Z,75.28
2023-04-10T00:49:11.874Z,74.22
2023-04-10T00:50:14.415Z,66.35
2023-04-10T00:51:19.266Z,71.85
2023-04-10T00:52:21.255Z,72.90
2023-04-10T00:53:25.696Z,66.65
2023-04-10T00:54:27.672Z,67.97
2023-04-10T00:55:30.711Z,75.18
2023-04-10T00:56:33.637Z,76.15
2023-04-10T00:57:36.930Z,71.15
2023-04-10T00:58:39.799Z,68.63
2023-04-10T00:59:44.377Z,74.25
2023-04-10T01:00:47.382Z,75.53
2023-04-10T01:01:50.519Z,69.43
2023-04-10T01:02:54.015Z,71.50
2023-04-10T01:03:59.092Z,68.85
2023-04-10T01:05:02.275Z,75.95
2023-04-10T01:06:10.786Z,69.22
2023-04-10T01:07:22.343Z,72.40
2023-04-10T01:08:32.581Z,74.00
2023-04-10T01:09:41.870Z,74.43
2023-04-10T01:10:48.805Z,73.40
2023-04-10T01:11:53.750Z,77.90
2023-04-10T01:13:01.031Z,81.68
2023-04-10T01:14:07.802Z,78.35
2023-04-10T01:15:16.819Z,71.18
2023-04-10T01:16:26.557Z,69.15
2023-04-10T01:17:32.595Z,68.82
2023-04-10T01:18:42.432Z,71.53
2023-04-10T01:20:01.407Z,70.10
2023-04-10T01:21:08.214Z,69.35
2023-04-10T01:22:13.553Z,66.07
2023-04-10T01:23:44.236Z,69.65
2023-04-10T01:25:00.311Z,60.10
2023-04-10T01:26:06.152Z,68.35
2023-04-10T01:27:22.591Z,61.67
2023-04-10T01:28:40.702Z,62.30
2023-04-10T01:29:48.239Z,65.50
2023-04-10T01:30:53.682Z,60.22
2023-04-10T01:31:58.888Z,62.50
2023-04-10T01:33:04.310Z,63.25
2023-04-10T01:34:08.532Z,67.45
2023-04-10T01:35:11.799Z,62.05
2023-04-10T01:36:17.799Z,74.05
2023-04-10T01:37:22.616Z,105.47
2023-04-10T01:38:27.323Z,77.70
2023-04-10T01:39:31.816Z,93.82
2023-04-10T01:40:39.101Z,74.55
2023-04-10T01:41:43.000Z,76.18
2023-04-10T01:42:50.587Z,79.50
2023-04-10T01:43:56.922Z,79.35
2023-04-10T01:44:59.485Z,78.72
2023-04-10T01:46:03.189Z,79.57
2023-04-10T01:47:07.169Z,74.72
2023-04-10T01:48:10.245Z,87.70
2023-04-10T01:49:13.806Z,83.75
2023-04-10T01:50:17.233Z,79.50
2023-04-10T01:51:19.141Z,81.22
2023-04-10T01:52:24.034Z,84.60
2023-04-10T01:53:35.875Z,86.47
2023-04-10T01:54:40.749Z,82.47
2023-04-10T01:55:43.572Z,83.63
2023-04-10T01:56:47.922Z,80.35
2023-04-10T01:57:53.440Z,80.32
2023-04-10T01:58:58.630Z,86.78
2023-04-10T02:00:00.925Z,88.20
2023-04-10T02:01:03.894Z,90.28
2023-04-10T02:02:07.876Z,86.03
2023-04-10T02:03:11.261Z,84.38
2023-04-10T02:04:14.524Z,83.53
2023-04-10T02:05:16.907Z,89.45
2023-04-10T02:06:24.371Z,83.10
2023-04-10T02:07:30.788Z,87.50
2023-04-10T02:08:36.495Z,89.25
2023-04-10T02:09:46.848Z,90.38
2023-04-10T02:10:55.692Z,88.32
2023-04-10T02:12:02.459Z,83.75
2023-04-10T02:13:07.860Z,91.47
2023-04-10T02:14:11.906Z,86.90
2023-04-10T02:15:18.048Z,84.55
2023-04-10T02:16:22.367Z,89.38
2023-04-10T02:17:29.007Z,92.75
2023-04-10T02:18:32.794Z,94.93
2023-04-10T02:19:36.411Z,84.55
2023-04-10T02:20:38.435Z,97.85
2023-04-10T02:21:42.217Z,98.32
2023-04-10T02:22:44.468Z,97.10
2023-04-10T02:23:47.455Z,101.47
2023-04-10T02:24:50.713Z,93.57
2023-04-10T02:25:53.633Z,88.38
2023-04-10T02:26:56.212Z,94.95
2023-04-10T02:27:59.462Z,98.47
2023-04-10T02:29:01.309Z,87.03
2023-04-10T02:30:06.680Z,92.85
2023-04-10T02:31:10.599Z,94.97
2023-04-10T02:32:13.612Z,97.70
2023-04-10T02:33:15.660Z,95.90
2023-04-10T02:34:20.477Z,96.55
2023-04-10T02:35:22.338Z,96.43
2023-04-10T02:36:25.495Z,97.65
2023-04-10T02:37:30.693Z,86.28
2023-04-10T02:38:36.150Z,91.90
2023-04-10T02:39:38.358Z,85.65
2023-04-10T02:40:41.519Z,81.65
2023-04-10T02:41:47.549Z,95.40
2023-04-10T02:42:50.916Z,92.72
2023-04-10T02:43:54.009Z,101.15
2023-04-10T02:45:02.351Z,102.63
2023-04-10T02:46:11.584Z,104.60
2023-04-10T02:47:16.888Z,107.90
2023-04-10T02:48:22.812Z,107.95
2023-04-10T02:49:30.942Z,112.70
2023-04-10T02:50:46.379Z,118.47
2023-04-10T02:51:49.672Z,120.88
2023-04-10T02:52:51.773Z,150.00
2023-04-10T02:53:56.310Z,150.20
2023-04-10T02:55:04.805Z,151.10
2023-04-10T02:56:12.682Z,148.18
2023-04-10T02:57:15.093Z,154.02
2023-04-10T02:58:18.209Z,139.80
2023-04-10T02:59:20.769Z,136.77
2023-04-10T03:00:23.985Z,144.32
2023-04-10T03:02:01.205Z,187.10
2023-04-10T03:03:06.358Z,247.52
2023-04-10T03:04:17.987Z,181.10
2023-04-10T03:05:20.134Z,261.30
2023-04-10T03:06:27.432Z,237.65
2023-04-10T03:07:32.427Z,192.48
2023-04-10T03:08:35.828Z,224.30
2023-04-10T03:09:44.367Z,291.42
2023-04-10T03:10:51.841Z,202.70
2023-04-10T03:11:54.967Z,215.82
2023-04-10T03:12:56.998Z,269.05
2023-04-10T03:14:03.427Z,340.92
2023-04-10T03:15:08.937Z,241.02
2023-04-10T03:16:12.912Z,221.15
2023-04-10T03:17:17.914Z,282.88
2023-04-10T03:18:20.616Z,249.57
2023-04-10T03:19:28.506Z,248.60
2023-04-10T03:20:30.912Z,201.07
2023-04-10T03:21:33.834Z,342.33
2023-04-10T03:22:36.550Z,266.27
2023-04-10T03:23:39.691Z,287.02
2023-04-10T03:24:50.856Z,251.45
2023-04-10T03:25:54.832Z,271.00
2023-04-10T03:27:00.335Z,280.10
2023-04-10T03:28:03.418Z,346.48
2023-04-10T03:29:06.046Z,257.08
2023-04-10T03:30:11.147Z,222.95
2023-04-10T03:31:16.629Z,334.85
2023-04-10T03:32:23.721Z,302.75
2023-04-10T03:33:26.023Z,245.38
2023-04-10T03:34:29.150Z,242.70
2023-04-10T03:35:31.445Z,254.55
2023-04-10T03:36:34.407Z,321.08
2023-04-10T03:37:36.800Z,396.23
2023-04-10T03:38:40.528Z,366.67
2023-04-10T03:39:43.910Z,304.67
2023-04-10T03:40:50.071Z,367.20
2023-04-10T03:41:56.070Z,364.92
2023-04-10T03:42:59.891Z,249.13
2023-04-10T03:44:06.194Z,401.33
2023-04-10T03:45:09.310Z,443.30
2023-04-10T03:46:12.155Z,441.63
2023-04-10T03:47:17.656Z,446.58
2023-04-10T03:48:28.363Z,377.08
2023-04-10T03:49:30.688Z,431.15
2023-04-10T03:50:40.291Z,394.70
2023-04-10T03:51:42.469Z,402.35
2023-04-10T03:52:45.730Z,439.70
2023-04-10T03:53:51.474Z,366.02
2023-04-10T03:54:54.999Z,353.52
2023-04-10T03:56:02.009Z,474.33
2023-04-10T03:57:06.081Z,390.83
2023-04-10T03:58:12.227Z,393.08
2023-04-10T03:59:16.218Z,406.42
2023-04-10T04:00:18.677Z,354.77
2023-04-10T04:01:24.419Z,520.80
2023-04-10T04:02:44.355Z,335.92
2023-04-10T04:03:49.487Z,452.25
2023-04-10T04:05:14.006Z,453.55
2023-04-10T04:06:23.708Z,374.65
2023-04-10T04:07:45.547Z,489.95
2023-04-10T04:09:04.732Z,383.17
2023-04-10T04:10:43.118Z,362.45
2023-04-10T04:11:54.226Z,321.52
2023-04-10T04:13:25.611Z,392.83
2023-04-10T04:14:47.850Z,329.15
2023-04-10T04:16:20.096Z,448.40
2023-04-10T04:17:28.103Z,348.90
2023-04-10T04:18:40.253Z,285.50
2023-04-10T04:20:03.598Z,465.55
2023-04-10T04:21:24.734Z,284.75
2023-04-10T04:22:56.735Z,356.42
2023-04-10T04:24:30.374Z,371.05
2023-04-10T04:25:38.033Z,374.23
2023-04-10T04:27:03.934Z,255.48
2023-04-10T04:28:17.523Z,307.58
2023-04-10T04:29:43.012Z,384.85
2023-04-10T04:30:57.676Z,364.98
2023-04-10T04:32:23.117Z,389.40
2023-04-10T04:33:58.153Z,309.42
2023-04-10T04:35:22.847Z,350.10
2023-04-10T04:36:31.904Z,380.25
2023-04-10T04:37:51.221Z,345.08
2023-04-10T04:38:53.166Z,275.95
2023-04-10T04:40:07.800Z,302.98
2023-04-10T04:41:43.135Z,369.30
2023-04-10T04:43:18.268Z,300.33
2023-04-10T04:44:34.584Z,313.75
2023-04-10T04:45:52.273Z,272.35
2023-04-10T04:47:12.954Z,244.57
2023-04-10T04:48:42.910Z,241.43
2023-04-10T04:49:57.868Z,242.73
2023-04-10T04:51:24.237Z,247.27
2023-04-10T04:52:40.519Z,236.23
2023-04-10T04:53:56.575Z,212.48
2023-04-10T04:55:31.903Z,241.80
2023-04-10T04:56:39.346Z,240.93
2023-04-10T04:57:54.365Z,176.77
2023-04-10T04:59:06.813Z,221.50
2023-04-10T05:00:28.286Z,215.68
2023-04-10T05:01:38.062Z,179.82
2023-04-10T05:02:55.689Z,218.57
2023-04-10T05:04:27.157Z,185.68
2023-04-10T05:05:45.516Z,214.35
2023-04-10T05:06:54.865Z,212.73
2023-04-10T05:08:21.428Z,168.55
2023-04-10T05:09:38.748Z,225.45
2023-04-10T05:10:52.807Z,219.20
2023-04-10T05:12:08.906Z,204.35
2023-04-10T05:13:32.335Z,199.40
2023-04-10T05:15:03.968Z,216.68
2023-04-10T05:16:14.634Z,191.52
2023-04-10T05:17:50.997Z,158.52
2023-04-10T05:19:14.703Z,190.75
2023-04-10T05:20:30.093Z,158.70
2023-04-10T05:21:38.244Z,164.77
2023-04-10T05:22:59.111Z,164.05
2023-04-10T05:24:19.823Z,178.30
2023-04-10T05:25:36.730Z,184.30
2023-04-10T05:26:58.805Z,140.20
2023-04-10T05:28:07.596Z,169.07
2023-04-10T05:29:29.161Z,148.00
2023-04-10T05:30:51.599Z,140.02
2023-04-10T05:32:23.249Z,150.15
2023-04-10T05:33:47.546Z,146.10
2023-04-10T05:35:01.726Z,165.23
2023-04-10T05:36:19.475Z,132.88
2023-04-10T05:37:42.869Z,117.72
2023-04-10T05:39:17.310Z,132.88
2023-04-10T05:40:45.197Z,135.85
2023-04-10T05:42:08.694Z,136.02
2023-04-10T05:43:23.791Z,135.50
2023-04-10T05:44:48.966Z,118.32
2023-04-10T05:46:11.717Z,127.00
2023-04-10T05:47:33.766Z,123.00
2023-04-10T05:48:54.217Z,120.60
2023-04-10T05:50:30.637Z,113.10
2023-04-10T05:51:56.415Z,115.82
2023-04-10T05:52:58.437Z,109.85
2023-04-10T05:54:21.309Z,93.55
2023-04-10T05:55:52.374Z,97.80
2023-04-10T05:57:22.295Z,99.22
2023-04-10T05:58:39.864Z,94.80
2023-04-10T06:00:00.955Z,102.88
2023-04-10T06:01:24.208Z,96.80
2023-04-10T06:02:36.708Z,100.22
2023-04-10T06:03:42.996Z,101.88
2023-04-10T06:04:46.649Z,91.40
2023-04-10T06:05:50.555Z,95.43
2023-04-10T06:06:52.671Z,88.13
2023-04-10T06:07:57.703Z,97.60
2023-04-10T06:09:01.307Z,102.28
2023-04-10T06:10:07.192Z,105.78
2023-04-10T06:11:12.446Z,93.25
2023-04-10T06:12:18.277Z,111.18
2023-04-10T06:13:21.653Z,109.07
2023-04-10T06:14:29.154Z,105.20
2023-04-10T06:15:33.556Z,109.55
2023-04-10T06:16:37.092Z,107.47
2023-04-10T06:17:42.563Z,101.65
2023-04-10T06:18:46.721Z,104.43
2023-04-10T06:19:50.854Z,102.80
2023-04-10T06:22:37.840Z,100.03
2023-04-10T06:23:42.112Z,104.07
2023-04-10T06:24:44.328Z,107.25
2023-04-10T06:25:50.535Z,99.93
2023-04-10T06:26:53.447Z,109.85
2023-04-10T06:27:58.191Z,101.93
2023-04-10T06:29:00.571Z,97.32
2023-04-10T06:30:04.107Z,106.95
2023-04-10T06:31:07.357Z,102.53
2023-04-10T06:32:12.713Z,109.60
2023-04-10T06:33:17.254Z,116.05
2023-04-10T06:34:20.723Z,112.15
2023-04-10T06:35:31.855Z,106.15
2023-04-10T06:36:35.104Z,118.22
2023-04-10T06:37:40.466Z,100.38
2023-04-10T06:38:43.658Z,97.22
2023-04-10T06:39:49.862Z,106.07
2023-04-10T06:40:53.320Z,100.72
2023-04-10T06:41:59.969Z,98.30
2023-04-10T06:43:31.824Z,95.93
2023-04-10T06:44:33.996Z,104.13
2023-04-10T06:45:37.829Z,99.85
2023-04-10T06:46:39.958Z,104.40
2023-04-10T06:47:44.119Z,93.78
2023-04-10T06:48:46.457Z,95.07
2023-04-10T06:49:49.668Z,97.25
2023-04-10T06:50:51.920Z,95.03
2023-04-10T06:51:55.367Z,90.10
2023-04-10T06:53:01.817Z,88.75
2023-04-10T06:54:05.104Z,95.70
2023-04-10T06:55:09.098Z,92.45
2023-04-10T06:56:12.586Z,91.88
2023-04-10T06:57:16.252Z,95.57
2023-04-10T06:58:19.902Z,102.95
2023-04-10T06:59:22.052Z,94.43
2023-04-10T07:00:25.580Z,95.53
2023-04-10T07:01:28.966Z,90.07
2023-04-10T07:02:32.360Z,96.22
2023-04-10T07:03:35.775Z,93.65
2023-04-10T07:04:39.982Z,94.10
2023-04-10T07:05:43.482Z,86.25
2023-04-10T07:06:45.619Z,85.38
2023-04-10T07:07:51.713Z,94.85
2023-04-10T07:08:56.816Z,85.75
2023-04-10T07:09:59.041Z,91.63
2023-04-10T07:11:02.268Z,92.63
2023-04-10T07:12:06.983Z,101.45
2023-04-10T07:13:10.405Z,91.00
2023-04-10T07:14:17.712Z,99.65
2023-04-10T07:15:20.996Z,83.50
2023-04-10T07:16:23.028Z,97.63
2023-04-10T07:17:26.563Z,88.15
2023-04-10T07:18:29.658Z,79.93
2023-04-10T07:19:31.720Z,83.57
2023-04-10T07:20:35.215Z,81.75
2023-04-10T07:21:37.109Z,82.20
2023-04-10T07:22:40.052Z,81.65
2023-04-10T07:23:42.302Z,81.90
2023-04-10T07:24:46.596Z,81.68
2023-04-10T07:25:49.603Z,78.45
2023-04-10T07:26:53.212Z,85.45
2023-04-10T07:27:56.695Z,70.70
2023-04-10T07:28:59.684Z,76.82
2023-04-10T07:30:03.001Z,87.60
2023-04-10T07:31:06.507Z,77.13
2023-04-10T07:32:09.576Z,82.88
2023-04-10T07:33:11.893Z,76.10
2023-04-10T07:34:15.074Z,77.10
2023-04-10T07:35:18.180Z,81.55
2023-04-10T07:36:20.126Z,69.28
2023-04-10T07:37:23.152Z,81.65
2023-04-10T07:38:25.671Z,67.82
2023-04-10T07:39:28.994Z,65.93
2023-04-10T07:40:31.129Z,66.10
2023-04-10T07:41:33.975Z,63.35
2023-04-10T07:42:37.178Z,66.93
2023-04-10T07:43:41.561Z,60.72
2023-04-10T07:44:43.509Z,59.08
2023-04-10T07:45:48.790Z,62.55
2023-04-10T07:46:52.310Z,66.25
2023-04-10T07:47:55.288Z,60.97
2023-04-10T07:48:57.566Z,62.53
2023-04-10T07:50:00.840Z,59.00
2023-04-10T07:51:02.860Z,54.83
2023-04-10T07:52:06.051Z,60.75
2023-04-10T07:53:08.308Z,61.17
2023-04-10T07:54:11.556Z,55.55
2023-04-10T07:55:13.682Z,61.92
2023-04-10T07:56:18.142Z,59.83
2023-04-10T07:57:20.414Z,59.33
2023-04-10T07:58:23.587Z,57.45
2023-04-10T07:59:27.956Z,53.55
2023-04-10T08:00:31.255Z,55.83
2023-04-10T08:01:34.711Z,50.83
2023-04-10T08:02:37.020Z,57.78
2023-04-10T08:03:41.509Z,55.72
2023-04-10T08:04:44.739Z,55.25
2023-04-10T08:05:46.841Z,58.83
2023-04-10T08:06:50.591Z,51.33
2023-04-10T08:07:52.756Z,50.03
2023-04-10T08:08:56.013Z,53.78
2023-04-10T08:09:58.335Z,51.10
2023-04-10T08:11:01.594Z,47.97
2023-04-10T08:12:05.163Z,47.85
2023-04-10T08:13:07.162Z,47.83
2023-04-10T08:14:10.538Z,49.60
2023-04-10T08:15:13.864Z,53.45
2023-04-10T08:16:17.051Z,52.75
2023-04-10T08:17:21.328Z,57.97
2023-04-10T08:18:23.549Z,52.97
2023-04-10T08:19:26.551Z,51.53
2023-04-10T08:20:28.780Z,44.67
2023-04-10T08:21:32.801Z,48.45
2023-04-10T08:22:35.885Z,47.22
2023-04-10T08:23:39.311Z,51.00
2023-04-10T08:24:42.280Z,49.50
2023-04-10T08:25:44.359Z,48.92
2023-04-10T08:26:47.342Z,48.65
2023-04-10T08:27:49.304Z,45.35
2023-04-10T08:28:54.299Z,48.47
2023-04-10T08:29:59.946Z,47.53
2023-04-10T08:31:04.091Z,47.72
2023-04-10T08:32:14.930Z,45.33
2023-04-10T08:33:18.776Z,48.63
2023-04-10T08:34:24.342Z,43.50
2023-04-10T08:35:27.619Z,47.38
2023-04-10T08:36:29.864Z,44.85
2023-04-10T08:37:33.383Z,44.67
2023-04-10T08:38:38.991Z,46.33
2023-04-10T08:39:43.975Z,47.50
2023-04-10T08:40:49.089Z,45.38
2023-04-10T08:41:52.163Z,44.72
2023-04-10T08:42:54.256Z,46.75
2023-04-10T08:43:59.636Z,45.20
2023-04-10T08:45:02.528Z,42.13
2023-04-10T08:46:08.158Z,45.90
2023-04-10T08:47:10.718Z,43.28
2023-04-10T08:48:14.929Z,44.50
2023-04-10T08:49:26.172Z,44.70
2023-04-10T08:50:30.307Z,44.90
2023-04-10T08:51:37.208Z,42.20
2023-04-10T08:52:43.768Z,42.92
2023-04-10T08:53:47.142Z,43.75
2023-04-10T08:54:53.588Z,46.88
2023-04-10T08:55:57.356Z,47.05
2023-04-10T08:57:01.538Z,42.70
2023-04-10T08:58:04.331Z,43.03
2023-04-10T08:59:09.036Z,45.30
2023-04-10T09:01:45.580Z,49.50
2023-04-10T09:02:49.553Z,49.90
2023-04-10T09:03:51.844Z,48.20
2023-04-10T09:05:01.509Z,47.67
2023-04-10T09:06:05.558Z,49.22
2023-04-10T09:07:07.616Z,50.00
2023-04-10T09:08:13.696Z,43.50
2023-04-10T09:09:16.713Z,41.50
2023-04-10T09:10:18.576Z,43.83
2023-04-10T09:11:23.984Z,38.25
2023-04-10T09:12:25.893Z,40.92
2023-04-10T09:13:39.756Z,38.20
2023-04-10T09:14:42.253Z,38.92
2023-04-10T09:15:57.442Z,39.80
2023-04-10T09:17:16.656Z,39.28
2023-04-10T09:18:19.952Z,38.83
2023-04-10T09:19:30.439Z,39.10
2023-04-10T09:20:34.020Z,35.25
2023-04-10T09:21:37.402Z,37.30
2023-04-10T09:22:40.300Z,37.00
2023-04-10T09:23:47.163Z,32.72
2023-04-10T09:24:50.095Z,33.55
2023-04-10T09:25:52.095Z,31.92
2023-04-10T09:26:55.467Z,30.92
2023-04-10T09:28:02.496Z,34.70
2023-04-10T09:29:06.553Z,38.13
2023-04-10T09:30:10.272Z,34.97
2023-04-10T09:31:32.275Z,35.25
2023-04-10T09:32:47.863Z,34.47
2023-04-10T09:34:08.528Z,34.88
2023-04-10T09:35:12.884Z,32.85
2023-04-10T09:36:14.922Z,32.63
2023-04-10T09:37:20.732Z,32.75
2023-04-10T09:38:23.980Z,36.33
2023-04-10T09:39:35.567Z,37.47
2023-04-10T09:40:38.193Z,33.65
2023-04-10T09:41:50.879Z,33.13
2023-04-10T09:42:55.957Z,35.80
2023-04-10T09:44:08.748Z,31.90
2023-04-10T09:45:11.741Z,32.38
2023-04-10T09:46:28.658Z,29.33
2023-04-10T09:47:31.072Z,30.58
2023-04-10T09:48:35.446Z,30.95
2023-04-10T09:49:45.345Z,30.98
2023-04-10T09:50:49.313Z,30.52
2023-04-10T09:51:52.254Z,36.08
2023-04-10T09:52:58.054Z,29.05
2023-04-10T09:54:02.160Z,31.40
2023-04-10T09:55:07.567Z,31.48
2023-04-10T09:56:09.663Z,31.58
2023-04-10T09:57:14.657Z,34.20
2023-04-10T09:58:18.920Z,35.75
2023-04-10T09:59:21.894Z,41.63
2023-04-10T10:00:25.832Z,37.22
2023-04-10T10:01:38.771Z,33.72
2023-04-10T10:02:42.290Z,35.30
2023-04-10T10:03:47.602Z,44.75
2023-04-10T10:04:50.472Z,53.80
2023-04-10T10:05:53.533Z,51.38
2023-04-10T10:06:57.658Z,39.72
2023-04-10T10:08:00.482Z,38.15
2023-04-10T10:09:04.195Z,37.20
2023-04-10T10:10:08.896Z,39.55
2023-04-10T10:11:12.517Z,37.95
2023-04-10T10:12:18.939Z,33.92
2023-04-10T10:13:26.108Z,33.03
2023-04-10T10:14:30.051Z,36.03
2023-04-10T10:15:36.712Z,33.80
2023-04-10T10:16:44.990Z,31.02
2023-04-10T10:17:53.287Z,30.67
2023-04-10T10:19:02.804Z,31.17
2023-04-10T10:20:10.564Z,30.63
2023-04-10T10:21:13.668Z,27.95
2023-04-10T10:22:16.592Z,29.77
2023-04-10T10:23:22.547Z,30.45
2023-04-10T10:24:26.437Z,32.47
2023-04-10T10:25:31.055Z,32.88
2023-04-10T10:26:35.539Z,35.92
2023-04-10T10:27:39.567Z,29.73
2023-04-10T10:28:42.727Z,30.48
2023-04-10T10:29:48.405Z,31.80
2023-04-10T10:30:50.582Z,30.50
2023-04-10T10:31:54.367Z,36.50
2023-04-10T10:32:56.637Z,35.35
2023-04-10T10:34:05.121Z,30.20
2023-04-10T10:35:08.857Z,32.13
2023-04-10T10:36:13.907Z,28.60
2023-04-10T10:37:18.448Z,29.88
2023-04-10T10:38:21.622Z,29.38
2023-04-10T10:39:30.747Z,30.15
2023-04-10T10:40:35.693Z,34.03
2023-04-10T10:41:43.969Z,32.75
2023-04-10T10:42:49.874Z,35.08
2023-04-10T10:43:56.572Z,33.58
2023-04-10T10:45:11.053Z,31.25
2023-04-10T10:46:19.023Z,34.33
2023-04-10T10:47:27.175Z,37.17
2023-04-10T10:48:30.134Z,33.85
2023-04-10T10:49:56.500Z,40.47
2023-04-10T10:51:02.312Z,39.50
2023-04-10T10:52:06.013Z,37.53
2023-04-10T10:53:09.327Z,38.47
2023-04-10T10:54:34.002Z,38.63
2023-04-10T10:55:38.082Z,39.53
2023-04-10T10:56:40.089Z,36.85
2023-04-10T10:57:49.987Z,32.60
2023-04-10T10:58:57.542Z,33.90
2023-04-10T11:00:00.547Z,37.78
2023-04-10T11:01:10.837Z,34.58
2023-04-10T11:02:20.837Z,32.85
2023-04-10T11:03:29.078Z,31.52
2023-04-10T11:04:44.766Z,33.42
2023-04-10T11:05:54.270Z,33.17
2023-04-10T11:06:57.233Z,31.17
2023-04-10T11:08:09.050Z,39.47
2023-04-10T11:09:48.760Z,49.45
2023-04-10T11:10:59.997Z,46.70
2023-04-10T11:12:03.404Z,42.65
2023-04-10T11:13:24.803Z,46.80
2023-04-10T11:14:28.284Z,54.17
2023-04-10T11:15:31.422Z,45.08
2023-04-10T11:16:45.032Z,39.05
2023-04-10T11:17:52.153Z,37.90
2023-04-10T11:19:15.415Z,34.55
2023-04-10T11:20:21.818Z,38.75
2023-04-10T11:21:26.695Z,36.60
2023-04-10T11:22:30.158Z,35.70
2023-04-10T11:23:32.731Z,33.65
2023-04-10T11:24:53.889Z,34.88
2023-04-10T11:25:57.593Z,38.30
2023-04-10T11:27:00.066Z,43.97
2023-04-10T11:28:03.557Z,36.72
2023-04-10T11:29:06.495Z,55.33
2023-04-10T11:30:28.151Z,35.33
2023-04-10T11:31:31.647Z,30.02
2023-04-10T11:32:42.156Z,33.05
2023-04-10T11:33:45.326Z,28.95
2023-04-10T11:34:48.337Z,30.40
2023-04-10T11:35:51.923Z,31.88
2023-04-10T11:37:03.925Z,28.63
2023-04-10T11:38:14.086Z,31.75
2023-04-10T11:39:18.819Z,26.58
2023-04-10T11:40:21.140Z,28.75
2023-04-10T11:41:28.945Z,29.38
2023-04-10T11:42:32.284Z,24.15
2023-04-10T11:43:35.838Z,29.40
2023-04-10T11:44:39.467Z,25.50
2023-04-10T11:45:42.217Z,24.27
2023-04-10T11:46:47.559Z,25.00
2023-04-10T11:47:51.912Z,26.70
2023-04-10T11:48:56.546Z,24.67
2023-04-10T11:49:58.717Z,29.03
2023-04-10T11:51:08.985Z,25.37
2023-04-10T11:52:25.819Z,25.53
2023-04-10T11:53:30.179Z,23.83
2023-04-10T11:54:33.181Z,22.50
2023-04-10T11:55:39.136Z,26.17
2023-04-10T11:56:43.537Z,23.57
2023-04-10T11:57:46.246Z,19.43
2023-04-10T11:58:53.991Z,22.33
2023-04-10T11:59:59.115Z,27.57
2023-04-10T12:01:02.690Z,21.80
2023-04-10T12:02:09.439Z,24.27
2023-04-10T12:03:12.800Z,23.80
2023-04-10T12:04:16.786Z,21.97
2023-04-10T12:05:19.214Z,25.33
2023-04-10T12:06:22.249Z,23.27
2023-04-10T12:07:27.446Z,26.47
2023-04-10T12:08:33.982Z,22.73
2023-04-10T12:09:37.573Z,24.20
2023-04-10T12:10:45.728Z,20.43
2023-04-10T12:11:52.795Z,19.93
2023-04-10T12:12:54.820Z,20.83
2023-04-10T12:13:58.967Z,18.77
2023-04-10T12:15:04.073Z,20.93
2023-04-10T12:16:09.455Z,22.50
2023-04-10T12:17:12.942Z,21.57
2023-04-10T12:18:15.584Z,21.20
2023-04-10T12:19:19.196Z,23.20
2023-04-10T12:20:23.793Z,20.30
2023-04-10T12:21:29.635Z,23.07
2023-04-10T12:22:33.211Z,22.37
2023-04-10T12:23:38.269Z,19.60
2023-04-10T12:24:46.821Z,22.50
2023-04-10T12:25:49.166Z,21.07
2023-04-10T12:26:52.420Z,20.43
2023-04-10T12:27:55.103Z,18.73
2023-04-10T12:28:59.409Z,20.30
2023-04-10T12:30:08.546Z,20.23
2023-04-10T12:31:14.356Z,21.37
2023-04-10T12:32:17.646Z,16.97
2023-04-10T12:33:23.127Z,21.07
2023-04-10T12:34:26.692Z,19.27
2023-04-10T12:35:38.728Z,18.40
2023-04-10T12:36:41.642Z,20.53
2023-04-10T12:37:49.166Z,19.33
2023-04-10T12:38:52.148Z,20.77
2023-04-10T12:40:05.989Z,17.40
2023-04-10T12:41:11.275Z,18.63
2023-04-10T12:42:15.499Z,19.40
2023-04-10T12:43:32.141Z,15.93
2023-04-10T12:44:35.061Z,17.47
2023-04-10T12:45:44.927Z,19.03
2023-04-10T12:46:48.015Z,18.30
2023-04-10T12:47:51.886Z,20.17
2023-04-10T12:48:55.000Z,21.00
2023-04-10T12:50:04.502Z,19.13
2023-04-10T12:51:08.063Z,18.47
2023-04-10T12:52:10.117Z,17.77
2023-04-10T12:53:15.222Z,21.10
2023-04-10T12:54:31.860Z,17.50
2023-04-10T12:55:34.164Z,18.38
2023-04-10T12:56:44.568Z,18.43
2023-04-10T12:57:49.226Z,17.63
2023-04-10T12:59:07.623Z,22.15
2023-04-10T13:00:12.685Z,20.35
2023-04-10T13:01:15.757Z,16.52
2023-04-10T13:02:20.681Z,15.88
2023-04-10T13:03:24.276Z,18.20
2023-04-10T13:04:28.356Z,19.15
2023-04-10T13:05:30.412Z,19.42
2023-04-10T13:06:33.415Z,17.60
2023-04-10T13:07:37.430Z,18.77
2023-04-10T13:08:43.690Z,17.02
2023-04-10T13:09:45.624Z,15.13
2023-04-10T13:10:49.086Z,17.27
2023-04-10T13:11:53.023Z,18.70
2023-04-10T13:12:56.006Z,16.17
2023-04-10T13:14:01.928Z,17.08
2023-04-10T13:15:07.354Z,15.73
2023-04-10T13:16:13.485Z,15.73
2023-04-10T13:17:16.220Z,16.45
2023-04-10T13:18:19.201Z,17.25
2023-04-10T13:19:21.570Z,16.58
2023-04-10T13:20:25.150Z,19.30
2023-04-10T13:21:28.689Z,24.33
2023-04-10T13:22:30.634Z,16.63
2023-04-10T13:23:34.044Z,19.27
2023-04-10T13:24:38.340Z,17.65
2023-04-10T13:25:42.878Z,20.75
2023-04-10T13:26:44.931Z,14.68
2023-04-10T13:27:47.983Z,18.08
2023-04-10T13:28:50.947Z,16.15
2023-04-10T13:29:53.854Z,16.92
2023-04-10T13:30:58.678Z,19.23
2023-04-10T13:32:01.317Z,23.77
2023-04-10T13:33:04.581Z,18.10
2023-04-10T13:34:07.611Z,16.90
2023-04-10T13:35:10.050Z,18.58
2023-04-10T13:36:13.363Z,18.60
2023-04-10T13:37:15.410Z,14.13
2023-04-10T13:38:19.988Z,19.30
2023-04-10T13:39:24.275Z,18.40
2023-04-10T13:40:29.016Z,20.02
2023-04-10T13:41:31.175Z,16.65
2023-04-10T13:42:35.949Z,15.70
2023-04-10T13:43:40.077Z,16.33
2023-04-10T13:44:41.959Z,12.55
2023-04-10T13:45:47.101Z,17.60
2023-04-10T13:46:49.229Z,13.98
2023-04-10T13:47:52.253Z,17.15
2023-04-10T13:48:54.251Z,14.38
2023-04-10T13:51:38.621Z,15.00
2023-04-10T13:54:12.746Z,14.57
2023-04-10T13:55:43.805Z,16.67
2023-04-10T13:56:47.005Z,18.47
2023-04-10T13:57:55.884Z,15.00
2023-04-10T13:59:07.194Z,16.00
2023-04-10T14:00:14.914Z,15.10
2023-04-10T14:01:18.586Z,18.03
2023-04-10T14:02:23.298Z,14.63
2023-04-10T14:03:27.556Z,16.77
2023-04-10T14:04:30.772Z,15.53
2023-04-10T14:05:34.763Z,15.63
2023-04-10T14:06:36.977Z,15.00
2023-04-10T14:07:41.802Z,15.63
2023-04-10T14:08:44.645Z,21.03
2023-04-10T14:09:48.530Z,19.00
2023-04-10T14:10:52.848Z,16.40
2023-04-10T14:11:55.042Z,17.42
2023-04-10T14:12:58.453Z,15.55
2023-04-10T14:14:00.829Z,17.10
2023-04-10T14:15:03.949Z,18.92
2023-04-10T14:16:07.867Z,18.85
2023-04-10T14:17:11.099Z,17.85
2023-04-10T14:18:15.305Z,17.75
2023-04-10T14:19:17.949Z,22.75
2023-04-10T14:20:21.457Z,14.60
2023-04-10T14:21:23.638Z,16.85
2023-04-10T14:22:27.458Z,14.55